sensor_id;sensor_type;location;lat;lon;timestamp;P1;durP1;ratioP1;P2;durP2;ratioP2
48205;SDS011;33995;48.202;16.260;2023-03-12T00:00:04;4.23;;;2.90;;
48205;SDS011;33995;48.202;16.260;2023-03-12T00:02:35;3.83;;;2.90;;
48205;SDS011;33995;48.202;16.260;2023-03-12T00:05:03;3.67;;;2.83;;
48205;SDS011;33995;48.202;16.260;2023-03-12T00:07:31;4.13;;;2.93;;
48205;SDS011;33995;48.202;16.260;2023-03-12T00:09:58;3.93;;;3.13;;
48205;SDS011;33995;48.202;16.260;2023-03-12T00:12:25;3.07;;;2.80;;
48205;SDS011;33995;48.202;16.260;2023-03-12T00:14:52;3.47;;;2.90;;
48205;SDS011;33995;48.202;16.260;2023-03-12T00:17:19;3.70;;;2.47;;
48205;SDS011;33995;48.202;16.260;2023-03-12T00:19:49;3.80;;;2.93;;
48205;SDS011;33995;48.202;16.260;2023-03-12T00:22:18;4.07;;;2.70;;
48205;SDS011;33995;48.202;16.260;2023-03-12T00:24:55;3.20;;;2.80;;
48205;SDS011;33995;48.202;16.260;2023-03-12T00:27:23;3.80;;;2.73;;
48205;SDS011;33995;48.202;16.260;2023-03-12T00:29:51;3.93;;;2.70;;
48205;SDS011;33995;48.202;16.260;2023-03-12T00:32:18;4.23;;;3.47;;
48205;SDS011;33995;48.202;16.260;2023-03-12T00:34:53;4.20;;;3.50;;
48205;SDS011;33995;48.202;16.260;2023-03-12T00:37:21;4.40;;;3.60;;
48205;SDS011;33995;48.202;16.260;2023-03-12T00:39:48;6.30;;;3.90;;
48205;SDS011;33995;48.202;16.260;2023-03-12T00:42:15;4.10;;;3.70;;
48205;SDS011;33995;48.202;16.260;2023-03-12T00:44:43;6.33;;;4.43;;
48205;SDS011;33995;48.202;16.260;2023-03-12T00:47:10;6.97;;;4.77;;
48205;SDS011;33995;48.202;16.260;2023-03-12T00:49:38;7.43;;;4.80;;
48205;SDS011;33995;48.202;16.260;2023-03-12T00:52:05;5.57;;;4.97;;
48205;SDS011;33995;48.202;16.260;2023-03-12T00:54:33;4.63;;;4.03;;
48205;SDS011;33995;48.202;16.260;2023-03-12T00:57:00;4.70;;;4.30;;
48205;SDS011;33995;48.202;16.260;2023-03-12T00:59:27;4.77;;;4.00;;
48205;SDS011;33995;48.202;16.260;2023-03-12T01:01:54;4.67;;;3.67;;
48205;SDS011;33995;48.202;16.260;2023-03-12T01:04:21;5.47;;;3.43;;
48205;SDS011;33995;48.202;16.260;2023-03-12T01:06:48;3.90;;;3.30;;
48205;SDS011;33995;48.202;16.260;2023-03-12T01:09:15;4.17;;;3.13;;
48205;SDS011;33995;48.202;16.260;2023-03-12T01:11:42;3.43;;;2.93;;
48205;SDS011;33995;48.202;16.260;2023-03-12T01:14:09;3.73;;;3.30;;
48205;SDS011;33995;48.202;16.260;2023-03-12T01:16:36;3.50;;;2.87;;
48205;SDS011;33995;48.202;16.260;2023-03-12T01:19:05;3.43;;;3.13;;
48205;SDS011;33995;48.202;16.260;2023-03-12T01:21:32;4.40;;;3.40;;
48205;SDS011;33995;48.202;16.260;2023-03-12T01:23:59;4.00;;;2.90;;
48205;SDS011;33995;48.202;16.260;2023-03-12T01:26:26;4.33;;;3.00;;
48205;SDS011;33995;48.202;16.260;2023-03-12T01:28:53;4.40;;;2.90;;
48205;SDS011;33995;48.202;16.260;2023-03-12T01:31:20;3.97;;;3.20;;
48205;SDS011;33995;48.202;16.260;2023-03-12T01:33:48;4.53;;;3.10;;
48205;SDS011;33995;48.202;16.260;2023-03-12T01:36:20;4.63;;;3.10;;
48205;SDS011;33995;48.202;16.260;2023-03-12T01:38:50;3.57;;;3.03;;
48205;SDS011;33995;48.202;16.260;2023-03-12T01:41:19;3.60;;;3.07;;
48205;SDS011;33995;48.202;16.260;2023-03-12T01:43:48;4.80;;;3.00;;
48205;SDS011;33995;48.202;16.260;2023-03-12T01:49:09;4.13;;;2.90;;
48205;SDS011;33995;48.202;16.260;2023-03-12T01:54:42;3.13;;;2.80;;
48205;SDS011;33995;48.202;16.260;2023-03-12T01:57:17;3.70;;;2.70;;
48205;SDS011;33995;48.202;16.260;2023-03-12T01:59:50;3.17;;;2.80;;
48205;SDS011;33995;48.202;16.260;2023-03-12T02:02:19;4.13;;;2.93;;
48205;SDS011;33995;48.202;16.260;2023-03-12T02:04:59;3.93;;;2.80;;
48205;SDS011;33995;48.202;16.260;2023-03-12T02:07:33;4.23;;;3.00;;
48205;SDS011;33995;48.202;16.260;2023-03-12T02:10:00;3.83;;;2.80;;
48205;SDS011;33995;48.202;16.260;2023-03-12T02:12:29;4.40;;;2.70;;
48205;SDS011;33995;48.202;16.260;2023-03-12T02:14:57;2.87;;;2.53;;
48205;SDS011;33995;48.202;16.260;2023-03-12T02:17:24;3.77;;;2.90;;
48205;SDS011;33995;48.202;16.260;2023-03-12T02:22:53;3.40;;;2.60;;
48205;SDS011;33995;48.202;16.260;2023-03-12T02:25:49;4.03;;;3.30;;
48205;SDS011;33995;48.202;16.260;2023-03-12T02:28:18;3.57;;;3.07;;
48205;SDS011;33995;48.202;16.260;2023-03-12T02:30:49;4.50;;;3.00;;
48205;SDS011;33995;48.202;16.260;2023-03-12T02:33:19;3.50;;;3.00;;
48205;SDS011;33995;48.202;16.260;2023-03-12T02:35:46;4.27;;;3.60;;
48205;SDS011;33995;48.202;16.260;2023-03-12T02:41:01;4.00;;;3.60;;
48205;SDS011;33995;48.202;16.260;2023-03-12T02:43:33;5.87;;;3.97;;
48205;SDS011;33995;48.202;16.260;2023-03-12T02:46:01;3.90;;;3.20;;
48205;SDS011;33995;48.202;16.260;2023-03-12T02:48:28;3.90;;;3.47;;
48205;SDS011;33995;48.202;16.260;2023-03-12T02:50:55;5.17;;;3.70;;
48205;SDS011;33995;48.202;16.260;2023-03-12T02:53:22;4.37;;;3.50;;
48205;SDS011;33995;48.202;16.260;2023-03-12T02:55:49;4.87;;;3.60;;
48205;SDS011;33995;48.202;16.260;2023-03-12T02:58:17;4.20;;;3.40;;
48205;SDS011;33995;48.202;16.260;2023-03-12T03:00:44;4.37;;;3.30;;
48205;SDS011;33995;48.202;16.260;2023-03-12T03:03:11;4.67;;;3.00;;
48205;SDS011;33995;48.202;16.260;2023-03-12T03:05:38;5.43;;;3.30;;
48205;SDS011;33995;48.202;16.260;2023-03-12T03:08:05;3.63;;;3.10;;
48205;SDS011;33995;48.202;16.260;2023-03-12T03:10:33;4.77;;;3.50;;
48205;SDS011;33995;48.202;16.260;2023-03-12T03:13:00;5.47;;;3.40;;
48205;SDS011;33995;48.202;16.260;2023-03-12T03:15:27;3.77;;;3.00;;
48205;SDS011;33995;48.202;16.260;2023-03-12T03:17:54;3.73;;;2.87;;
48205;SDS011;33995;48.202;16.260;2023-03-12T03:20:21;3.30;;;3.00;;
48205;SDS011;33995;48.202;16.260;2023-03-12T03:22:50;4.37;;;3.07;;
48205;SDS011;33995;48.202;16.260;2023-03-12T03:25:17;4.00;;;3.20;;
48205;SDS011;33995;48.202;16.260;2023-03-12T03:27:48;4.97;;;3.43;;
48205;SDS011;33995;48.202;16.260;2023-03-12T03:30:15;3.50;;;3.00;;
48205;SDS011;33995;48.202;16.260;2023-03-12T03:32:46;4.00;;;2.90;;
48205;SDS011;33995;48.202;16.260;2023-03-12T03:35:14;3.47;;;3.10;;
48205;SDS011;33995;48.202;16.260;2023-03-12T03:37:41;4.47;;;3.10;;
48205;SDS011;33995;48.202;16.260;2023-03-12T03:40:08;4.67;;;3.27;;
48205;SDS011;33995;48.202;16.260;2023-03-12T03:42:38;4.13;;;3.10;;
48205;SDS011;33995;48.202;16.260;2023-03-12T03:45:07;4.40;;;3.00;;
48205;SDS011;33995;48.202;16.260;2023-03-12T03:47:35;4.27;;;3.23;;
48205;SDS011;33995;48.202;16.260;2023-03-12T03:50:03;4.83;;;3.03;;
48205;SDS011;33995;48.202;16.260;2023-03-12T03:52:31;3.43;;;2.90;;
48205;SDS011;33995;48.202;16.260;2023-03-12T03:55:01;4.93;;;2.80;;
48205;SDS011;33995;48.202;16.260;2023-03-12T03:57:30;3.27;;;2.97;;
48205;SDS011;33995;48.202;16.260;2023-03-12T03:59:57;4.30;;;2.97;;
48205;SDS011;33995;48.202;16.260;2023-03-12T04:02:38;3.87;;;3.20;;
48205;SDS011;33995;48.202;16.260;2023-03-12T04:05:08;3.73;;;3.00;;
48205;SDS011;33995;48.202;16.260;2023-03-12T04:07:37;4.00;;;3.20;;
48205;SDS011;33995;48.202;16.260;2023-03-12T04:10:04;4.13;;;3.37;;
48205;SDS011;33995;48.202;16.260;2023-03-12T04:12:32;3.73;;;3.20;;
48205;SDS011;33995;48.202;16.260;2023-03-12T04:14:59;4.40;;;3.37;;
48205;SDS011;33995;48.202;16.260;2023-03-12T04:17:27;4.80;;;3.50;;
48205;SDS011;33995;48.202;16.260;2023-03-12T04:19:55;4.47;;;3.47;;
48205;SDS011;33995;48.202;16.260;2023-03-12T04:22:23;4.47;;;3.60;;
48205;SDS011;33995;48.202;16.260;2023-03-12T04:24:50;4.80;;;3.60;;
48205;SDS011;33995;48.202;16.260;2023-03-12T04:27:18;4.10;;;3.40;;
48205;SDS011;33995;48.202;16.260;2023-03-12T04:29:45;4.30;;;3.40;;
48205;SDS011;33995;48.202;16.260;2023-03-12T04:32:13;4.20;;;3.43;;
48205;SDS011;33995;48.202;16.260;2023-03-12T04:34:40;3.83;;;3.10;;
48205;SDS011;33995;48.202;16.260;2023-03-12T04:37:08;4.00;;;3.30;;
48205;SDS011;33995;48.202;16.260;2023-03-12T04:39:39;3.87;;;3.20;;
48205;SDS011;33995;48.202;16.260;2023-03-12T04:42:08;4.70;;;3.00;;
48205;SDS011;33995;48.202;16.260;2023-03-12T04:44:38;5.07;;;3.53;;
48205;SDS011;33995;48.202;16.260;2023-03-12T04:47:07;4.43;;;3.10;;
48205;SDS011;33995;48.202;16.260;2023-03-12T04:49:36;4.07;;;3.10;;
48205;SDS011;33995;48.202;16.260;2023-03-12T04:52:05;4.07;;;3.20;;
48205;SDS011;33995;48.202;16.260;2023-03-12T04:54:32;3.83;;;3.00;;
48205;SDS011;33995;48.202;16.260;2023-03-12T04:57:00;3.93;;;3.43;;
48205;SDS011;33995;48.202;16.260;2023-03-12T04:59:27;4.57;;;3.00;;
48205;SDS011;33995;48.202;16.260;2023-03-12T05:01:54;3.70;;;3.40;;
48205;SDS011;33995;48.202;16.260;2023-03-12T05:04:25;4.30;;;3.37;;
48205;SDS011;33995;48.202;16.260;2023-03-12T05:06:53;5.07;;;3.77;;
48205;SDS011;33995;48.202;16.260;2023-03-12T05:09:20;4.63;;;3.80;;
48205;SDS011;33995;48.202;16.260;2023-03-12T05:11:48;5.10;;;3.70;;
48205;SDS011;33995;48.202;16.260;2023-03-12T05:14:19;6.37;;;3.60;;
48205;SDS011;33995;48.202;16.260;2023-03-12T05:16:47;5.77;;;3.57;;
48205;SDS011;33995;48.202;16.260;2023-03-12T05:19:14;3.80;;;3.40;;
48205;SDS011;33995;48.202;16.260;2023-03-12T05:21:41;5.27;;;3.90;;
48205;SDS011;33995;48.202;16.260;2023-03-12T05:24:10;4.80;;;3.23;;
48205;SDS011;33995;48.202;16.260;2023-03-12T05:26:37;5.13;;;3.70;;
48205;SDS011;33995;48.202;16.260;2023-03-12T05:29:11;3.90;;;3.23;;
48205;SDS011;33995;48.202;16.260;2023-03-12T05:31:39;3.37;;;2.90;;
48205;SDS011;33995;48.202;16.260;2023-03-12T05:34:09;3.40;;;3.10;;
48205;SDS011;33995;48.202;16.260;2023-03-12T05:36:40;4.00;;;3.10;;
48205;SDS011;33995;48.202;16.260;2023-03-12T05:39:08;3.87;;;3.00;;
48205;SDS011;33995;48.202;16.260;2023-03-12T05:41:38;4.63;;;3.50;;
48205;SDS011;33995;48.202;16.260;2023-03-12T05:44:11;4.43;;;3.40;;
48205;SDS011;33995;48.202;16.260;2023-03-12T05:46:41;4.07;;;3.13;;
48205;SDS011;33995;48.202;16.260;2023-03-12T05:49:09;3.53;;;2.90;;
48205;SDS011;33995;48.202;16.260;2023-03-12T05:51:36;4.23;;;3.40;;
48205;SDS011;33995;48.202;16.260;2023-03-12T05:54:04;4.47;;;3.60;;
48205;SDS011;33995;48.202;16.260;2023-03-12T05:56:31;3.87;;;3.40;;
48205;SDS011;33995;48.202;16.260;2023-03-12T05:58:58;6.33;;;3.47;;
48205;SDS011;33995;48.202;16.260;2023-03-12T06:01:26;3.70;;;3.23;;
48205;SDS011;33995;48.202;16.260;2023-03-12T06:03:56;5.73;;;3.50;;
48205;SDS011;33995;48.202;16.260;2023-03-12T06:06:24;4.87;;;3.97;;
48205;SDS011;33995;48.202;16.260;2023-03-12T06:08:52;5.20;;;3.90;;
48205;SDS011;33995;48.202;16.260;2023-03-12T06:11:19;5.03;;;3.60;;
48205;SDS011;33995;48.202;16.260;2023-03-12T06:13:46;4.10;;;3.70;;
48205;SDS011;33995;48.202;16.260;2023-03-12T06:16:15;5.47;;;4.10;;
48205;SDS011;33995;48.202;16.260;2023-03-12T06:18:45;4.20;;;3.70;;
48205;SDS011;33995;48.202;16.260;2023-03-12T06:21:16;4.70;;;4.20;;
48205;SDS011;33995;48.202;16.260;2023-03-12T06:23:46;4.97;;;4.27;;
48205;SDS011;33995;48.202;16.260;2023-03-12T06:26:21;5.17;;;3.70;;
48205;SDS011;33995;48.202;16.260;2023-03-12T06:28:48;4.37;;;3.40;;
48205;SDS011;33995;48.202;16.260;2023-03-12T06:31:16;4.47;;;3.50;;
48205;SDS011;33995;48.202;16.260;2023-03-12T06:33:44;4.90;;;3.97;;
48205;SDS011;33995;48.202;16.260;2023-03-12T06:36:12;4.40;;;3.43;;
48205;SDS011;33995;48.202;16.260;2023-03-12T06:38:40;5.27;;;4.20;;
48205;SDS011;33995;48.202;16.260;2023-03-12T06:41:08;4.33;;;3.60;;
48205;SDS011;33995;48.202;16.260;2023-03-12T06:43:40;4.13;;;3.53;;
48205;SDS011;33995;48.202;16.260;2023-03-12T06:46:09;3.93;;;3.30;;
48205;SDS011;33995;48.202;16.260;2023-03-12T06:48:38;3.97;;;3.13;;
48205;SDS011;33995;48.202;16.260;2023-03-12T06:51:07;3.43;;;3.10;;
48205;SDS011;33995;48.202;16.260;2023-03-12T06:53:35;3.50;;;3.20;;
48205;SDS011;33995;48.202;16.260;2023-03-12T06:56:07;3.87;;;2.90;;
48205;SDS011;33995;48.202;16.260;2023-03-12T06:58:34;3.90;;;3.50;;
48205;SDS011;33995;48.202;16.260;2023-03-12T07:01:02;3.73;;;3.30;;
48205;SDS011;33995;48.202;16.260;2023-03-12T07:03:29;3.40;;;3.10;;
48205;SDS011;33995;48.202;16.260;2023-03-12T07:05:57;4.20;;;3.00;;
48205;SDS011;33995;48.202;16.260;2023-03-12T07:08:24;4.17;;;3.30;;
48205;SDS011;33995;48.202;16.260;2023-03-12T07:10:55;3.70;;;3.10;;
48205;SDS011;33995;48.202;16.260;2023-03-12T07:13:26;3.13;;;2.83;;
48205;SDS011;33995;48.202;16.260;2023-03-12T07:15:53;4.00;;;3.10;;
48205;SDS011;33995;48.202;16.260;2023-03-12T07:18:20;3.30;;;3.00;;
48205;SDS011;33995;48.202;16.260;2023-03-12T07:20:47;3.50;;;3.13;;
48205;SDS011;33995;48.202;16.260;2023-03-12T07:23:14;4.17;;;3.00;;
48205;SDS011;33995;48.202;16.260;2023-03-12T07:25:43;3.83;;;3.10;;
48205;SDS011;33995;48.202;16.260;2023-03-12T07:28:11;4.57;;;2.90;;
48205;SDS011;33995;48.202;16.260;2023-03-12T07:30:39;3.60;;;3.00;;
48205;SDS011;33995;48.202;16.260;2023-03-12T07:33:07;5.07;;;3.03;;
48205;SDS011;33995;48.202;16.260;2023-03-12T07:35:37;3.70;;;3.07;;
48205;SDS011;33995;48.202;16.260;2023-03-12T07:38:06;3.17;;;2.80;;
48205;SDS011;33995;48.202;16.260;2023-03-12T07:40:34;3.30;;;2.53;;
48205;SDS011;33995;48.202;16.260;2023-03-12T07:43:02;3.03;;;2.50;;
48205;SDS011;33995;48.202;16.260;2023-03-12T07:45:34;3.10;;;2.30;;
48205;SDS011;33995;48.202;16.260;2023-03-12T07:48:01;4.10;;;2.33;;
48205;SDS011;33995;48.202;16.260;2023-03-12T07:50:28;3.80;;;2.60;;
48205;SDS011;33995;48.202;16.260;2023-03-12T07:52:55;2.97;;;2.23;;
48205;SDS011;33995;48.202;16.260;2023-03-12T07:55:22;3.10;;;2.30;;
48205;SDS011;33995;48.202;16.260;2023-03-12T07:57:49;2.73;;;2.20;;
48205;SDS011;33995;48.202;16.260;2023-03-12T08:00:17;3.07;;;2.20;;
48205;SDS011;33995;48.202;16.260;2023-03-12T08:02:44;3.03;;;2.43;;
48205;SDS011;33995;48.202;16.260;2023-03-12T08:05:11;2.80;;;2.10;;
48205;SDS011;33995;48.202;16.260;2023-03-12T08:07:38;2.57;;;2.30;;
48205;SDS011;33995;48.202;16.260;2023-03-12T08:10:06;3.27;;;2.53;;
48205;SDS011;33995;48.202;16.260;2023-03-12T08:12:34;3.07;;;2.20;;
48205;SDS011;33995;48.202;16.260;2023-03-12T08:19:14;2.50;;;2.07;;
48205;SDS011;33995;48.202;16.260;2023-03-12T08:22:01;2.67;;;2.00;;
48205;SDS011;33995;48.202;16.260;2023-03-12T08:24:48;3.03;;;2.20;;
48205;SDS011;33995;48.202;16.260;2023-03-12T08:27:36;3.53;;;2.20;;
48205;SDS011;33995;48.202;16.260;2023-03-12T08:30:24;2.67;;;2.10;;
48205;SDS011;33995;48.202;16.260;2023-03-12T08:33:15;3.00;;;2.00;;
48205;SDS011;33995;48.202;16.260;2023-03-12T08:36:02;2.37;;;1.90;;
48205;SDS011;33995;48.202;16.260;2023-03-12T08:38:50;2.50;;;2.00;;
48205;SDS011;33995;48.202;16.260;2023-03-12T08:41:37;2.60;;;2.30;;
48205;SDS011;33995;48.202;16.260;2023-03-12T08:44:25;2.37;;;1.97;;
48205;SDS011;33995;48.202;16.260;2023-03-12T08:47:12;2.90;;;1.87;;
48205;SDS011;33995;48.202;16.260;2023-03-12T08:50:00;2.90;;;2.00;;
48205;SDS011;33995;48.202;16.260;2023-03-12T08:52:48;2.77;;;1.90;;
48205;SDS011;33995;48.202;16.260;2023-03-12T08:55:36;3.13;;;2.00;;
48205;SDS011;33995;48.202;16.260;2023-03-12T08:58:24;2.57;;;2.10;;
48205;SDS011;33995;48.202;16.260;2023-03-12T09:01:12;2.00;;;1.80;;
48205;SDS011;33995;48.202;16.260;2023-03-12T09:04:01;3.17;;;2.00;;
48205;SDS011;33995;48.202;16.260;2023-03-12T09:06:49;2.67;;;1.80;;
48205;SDS011;33995;48.202;16.260;2023-03-12T09:09:37;2.30;;;1.90;;
48205;SDS011;33995;48.202;16.260;2023-03-12T09:12:24;3.73;;;2.30;;
48205;SDS011;33995;48.202;16.260;2023-03-12T09:15:12;4.00;;;3.00;;
48205;SDS011;33995;48.202;16.260;2023-03-12T09:17:59;2.20;;;2.00;;
48205;SDS011;33995;48.202;16.260;2023-03-12T09:20:28;4.07;;;2.30;;
48205;SDS011;33995;48.202;16.260;2023-03-12T09:22:55;2.40;;;2.00;;
48205;SDS011;33995;48.202;16.260;2023-03-12T09:25:22;2.40;;;2.13;;
48205;SDS011;33995;48.202;16.260;2023-03-12T09:27:51;3.03;;;2.47;;
48205;SDS011;33995;48.202;16.260;2023-03-12T09:30:18;2.40;;;2.20;;
48205;SDS011;33995;48.202;16.260;2023-03-12T09:32:47;4.30;;;2.60;;
48205;SDS011;33995;48.202;16.260;2023-03-12T09:35:14;3.23;;;2.23;;
48205;SDS011;33995;48.202;16.260;2023-03-12T09:37:42;3.47;;;2.30;;
48205;SDS011;33995;48.202;16.260;2023-03-12T09:40:19;2.50;;;2.20;;
48205;SDS011;33995;48.202;16.260;2023-03-12T09:43:37;3.50;;;2.17;;
48205;SDS011;33995;48.202;16.260;2023-03-12T09:46:01;2.20;;;2.00;;
48205;SDS011;33995;48.202;16.260;2023-03-12T09:48:35;4.73;;;2.20;;
48205;SDS011;33995;48.202;16.260;2023-03-12T09:51:47;3.53;;;2.20;;
48205;SDS011;33995;48.202;16.260;2023-03-12T09:53:59;3.07;;;2.23;;
48205;SDS011;33995;48.202;16.260;2023-03-12T09:56:29;3.00;;;2.30;;
48205;SDS011;33995;48.202;16.260;2023-03-12T09:58:58;3.33;;;2.40;;
48205;SDS011;33995;48.202;16.260;2023-03-12T10:01:43;2.87;;;2.10;;
48205;SDS011;33995;48.202;16.260;2023-03-12T10:07:33;4.83;;;3.97;;
48205;SDS011;33995;48.202;16.260;2023-03-12T10:10:09;3.87;;;2.80;;
48205;SDS011;33995;48.202;16.260;2023-03-12T10:13:01;2.93;;;2.60;;
48205;SDS011;33995;48.202;16.260;2023-03-12T10:26:59;3.33;;;2.30;;
48205;SDS011;33995;48.202;16.260;2023-03-12T10:29:28;4.10;;;2.60;;
48205;SDS011;33995;48.202;16.260;2023-03-12T10:32:45;2.83;;;2.37;;
48205;SDS011;33995;48.202;16.260;2023-03-12T10:34:59;2.90;;;2.50;;
48205;SDS011;33995;48.202;16.260;2023-03-12T10:37:48;3.90;;;2.70;;
48205;SDS011;33995;48.202;16.260;2023-03-12T10:40:21;3.60;;;2.73;;
48205;SDS011;33995;48.202;16.260;2023-03-12T10:42:50;3.00;;;2.70;;
48205;SDS011;33995;48.202;16.260;2023-03-12T10:45:33;3.53;;;2.70;;
48205;SDS011;33995;48.202;16.260;2023-03-12T10:48:19;3.50;;;3.07;;
48205;SDS011;33995;48.202;16.260;2023-03-12T10:51:00;3.10;;;2.80;;
48205;SDS011;33995;48.202;16.260;2023-03-12T10:53:30;3.23;;;2.70;;
48205;SDS011;33995;48.202;16.260;2023-03-12T10:58:36;3.17;;;2.87;;
48205;SDS011;33995;48.202;16.260;2023-03-12T11:01:18;3.37;;;3.03;;
48205;SDS011;33995;48.202;16.260;2023-03-12T11:03:51;3.00;;;2.70;;
48205;SDS011;33995;48.202;16.260;2023-03-12T11:06:20;3.43;;;3.13;;
48205;SDS011;33995;48.202;16.260;2023-03-12T11:09:04;3.63;;;2.80;;
48205;SDS011;33995;48.202;16.260;2023-03-12T11:11:46;3.73;;;2.70;;
48205;SDS011;33995;48.202;16.260;2023-03-12T11:14:16;3.60;;;2.80;;
48205;SDS011;33995;48.202;16.260;2023-03-12T11:16:51;3.37;;;3.07;;
48205;SDS011;33995;48.202;16.260;2023-03-12T11:19:27;3.67;;;3.30;;
48205;SDS011;33995;48.202;16.260;2023-03-12T11:21:57;4.40;;;3.53;;
48205;SDS011;33995;48.202;16.260;2023-03-12T11:24:34;3.70;;;3.30;;
48205;SDS011;33995;48.202;16.260;2023-03-12T11:27:05;3.93;;;3.30;;
48205;SDS011;33995;48.202;16.260;2023-03-12T11:29:47;3.70;;;3.40;;
48205;SDS011;33995;48.202;16.260;2023-03-12T11:34:45;3.40;;;3.10;;
48205;SDS011;33995;48.202;16.260;2023-03-12T11:37:26;3.83;;;3.53;;
48205;SDS011;33995;48.202;16.260;2023-03-12T11:40:16;4.13;;;3.23;;
48205;SDS011;33995;48.202;16.260;2023-03-12T11:56:36;3.70;;;3.30;;
48205;SDS011;33995;48.202;16.260;2023-03-12T12:07:22;3.90;;;3.60;;
48205;SDS011;33995;48.202;16.260;2023-03-12T12:10:05;5.10;;;4.10;;
48205;SDS011;33995;48.202;16.260;2023-03-12T12:32:20;4.20;;;3.80;;
48205;SDS011;33995;48.202;16.260;2023-03-12T12:35:10;4.17;;;3.67;;
48205;SDS011;33995;48.202;16.260;2023-03-12T12:37:47;4.17;;;3.77;;
48205;SDS011;33995;48.202;16.260;2023-03-12T12:40:46;4.73;;;4.10;;
48205;SDS011;33995;48.202;16.260;2023-03-12T12:43:21;4.40;;;4.00;;
48205;SDS011;33995;48.202;16.260;2023-03-12T12:45:55;4.53;;;4.07;;
48205;SDS011;33995;48.202;16.260;2023-03-12T12:48:27;4.97;;;4.30;;
48205;SDS011;33995;48.202;16.260;2023-03-12T12:51:09;4.07;;;3.67;;
48205;SDS011;33995;48.202;16.260;2023-03-12T12:59:34;3.63;;;3.33;;
48205;SDS011;33995;48.202;16.260;2023-03-12T13:02:13;4.23;;;3.83;;
48205;SDS011;33995;48.202;16.260;2023-03-12T13:04:49;4.10;;;3.70;;
48205;SDS011;33995;48.202;16.260;2023-03-12T13:09:48;5.23;;;3.40;;
48205;SDS011;33995;48.202;16.260;2023-03-12T13:15:00;3.93;;;3.60;;
48205;SDS011;33995;48.202;16.260;2023-03-12T13:20:18;4.37;;;3.93;;
48205;SDS011;33995;48.202;16.260;2023-03-12T13:25:27;4.73;;;3.83;;
48205;SDS011;33995;48.202;16.260;2023-03-12T13:30:51;4.17;;;3.77;;
48205;SDS011;33995;48.202;16.260;2023-03-12T13:33:35;4.20;;;3.80;;
48205;SDS011;33995;48.202;16.260;2023-03-12T13:38:57;4.80;;;4.37;;
48205;SDS011;33995;48.202;16.260;2023-03-12T13:41:36;4.40;;;4.00;;
48205;SDS011;33995;48.202;16.260;2023-03-12T13:46:58;4.37;;;3.93;;
48205;SDS011;33995;48.202;16.260;2023-03-12T13:52:26;4.23;;;3.70;;
48205;SDS011;33995;48.202;16.260;2023-03-12T13:55:00;4.33;;;3.93;;
48205;SDS011;33995;48.202;16.260;2023-03-12T13:57:29;4.40;;;4.00;;
48205;SDS011;33995;48.202;16.260;2023-03-12T14:03:19;5.50;;;4.50;;
48205;SDS011;33995;48.202;16.260;2023-03-12T14:06:05;4.97;;;4.47;;
48205;SDS011;33995;48.202;16.260;2023-03-12T14:12:02;4.60;;;4.20;;
48205;SDS011;33995;48.202;16.260;2023-03-12T14:17:31;4.67;;;4.00;;
48205;SDS011;33995;48.202;16.260;2023-03-12T14:22:51;4.20;;;3.80;;
48205;SDS011;33995;48.202;16.260;2023-03-12T14:28:09;12.10;;;11.03;;
48205;SDS011;33995;48.202;16.260;2023-03-12T14:30:51;12.60;;;11.50;;
48205;SDS011;33995;48.202;16.260;2023-03-12T14:33:34;16.13;;;14.63;;
48205;SDS011;33995;48.202;16.260;2023-03-12T14:36:14;12.70;;;11.50;;
48205;SDS011;33995;48.202;16.260;2023-03-12T14:38:46;17.93;;;16.13;;
48205;SDS011;33995;48.202;16.260;2023-03-12T14:41:23;11.83;;;10.43;;
48205;SDS011;33995;48.202;16.260;2023-03-12T14:43:56;6.90;;;6.20;;
48205;SDS011;33995;48.202;16.260;2023-03-12T14:46:54;5.87;;;5.37;;
48205;SDS011;33995;48.202;16.260;2023-03-12T14:49:22;5.10;;;4.60;;
48205;SDS011;33995;48.202;16.260;2023-03-12T14:51:49;5.80;;;5.20;;
48205;SDS011;33995;48.202;16.260;2023-03-12T14:54:18;5.93;;;5.27;;
48205;SDS011;33995;48.202;16.260;2023-03-12T14:56:49;6.10;;;4.93;;
48205;SDS011;33995;48.202;16.260;2023-03-12T14:59:24;7.30;;;6.60;;
48205;SDS011;33995;48.202;16.260;2023-03-12T15:01:56;6.00;;;5.47;;
48205;SDS011;33995;48.202;16.260;2023-03-12T15:04:36;5.60;;;5.10;;
48205;SDS011;33995;48.202;16.260;2023-03-12T15:07:05;5.80;;;5.30;;
48205;SDS011;33995;48.202;16.260;2023-03-12T15:09:40;7.33;;;5.97;;
48205;SDS011;33995;48.202;16.260;2023-03-12T15:12:28;6.00;;;5.40;;
48205;SDS011;33995;48.202;16.260;2023-03-12T15:15:27;6.33;;;5.20;;
48205;SDS011;33995;48.202;16.260;2023-03-12T15:17:51;6.87;;;6.17;;
48205;SDS011;33995;48.202;16.260;2023-03-12T15:20:18;6.53;;;5.93;;
48205;SDS011;33995;48.202;16.260;2023-03-12T15:22:48;6.00;;;5.50;;
48205;SDS011;33995;48.202;16.260;2023-03-12T15:25:22;6.30;;;4.90;;
48205;SDS011;33995;48.202;16.260;2023-03-12T15:30:32;5.47;;;4.60;;
48205;SDS011;33995;48.202;16.260;2023-03-12T15:33:08;6.83;;;5.07;;
48205;SDS011;33995;48.202;16.260;2023-03-12T15:35:58;6.00;;;5.40;;
48205;SDS011;33995;48.202;16.260;2023-03-12T15:38:29;5.77;;;5.17;;
48205;SDS011;33995;48.202;16.260;2023-03-12T15:41:02;5.80;;;5.20;;
48205;SDS011;33995;48.202;16.260;2023-03-12T15:43:33;5.87;;;5.20;;
48205;SDS011;33995;48.202;16.260;2023-03-12T15:46:03;6.83;;;5.63;;
48205;SDS011;33995;48.202;16.260;2023-03-12T15:48:37;5.47;;;4.50;;
48205;SDS011;33995;48.202;16.260;2023-03-12T15:51:12;5.20;;;4.70;;
48205;SDS011;33995;48.202;16.260;2023-03-12T15:53:59;5.30;;;4.80;;
48205;SDS011;33995;48.202;16.260;2023-03-12T15:56:33;5.20;;;4.70;;
48205;SDS011;33995;48.202;16.260;2023-03-12T15:59:03;5.57;;;4.60;;
48205;SDS011;33995;48.202;16.260;2023-03-12T16:01:49;5.53;;;5.00;;
48205;SDS011;33995;48.202;16.260;2023-03-12T16:04:19;6.00;;;5.40;;
48205;SDS011;33995;48.202;16.260;2023-03-12T16:06:47;6.00;;;5.37;;
48205;SDS011;33995;48.202;16.260;2023-03-12T16:09:23;5.90;;;5.30;;
48205;SDS011;33995;48.202;16.260;2023-03-12T16:11:54;5.57;;;5.07;;
48205;SDS011;33995;48.202;16.260;2023-03-12T16:14:30;5.30;;;4.77;;
48205;SDS011;33995;48.202;16.260;2023-03-12T16:17:00;5.70;;;5.10;;
48205;SDS011;33995;48.202;16.260;2023-03-12T16:19:29;6.00;;;5.40;;
48205;SDS011;33995;48.202;16.260;2023-03-12T16:22:01;5.10;;;4.60;;
48205;SDS011;33995;48.202;16.260;2023-03-12T16:24:29;6.07;;;5.47;;
48205;SDS011;33995;48.202;16.260;2023-03-12T16:26:57;6.20;;;5.60;;
48205;SDS011;33995;48.202;16.260;2023-03-12T16:29:35;6.87;;;5.47;;
48205;SDS011;33995;48.202;16.260;2023-03-12T16:32:14;5.53;;;5.03;;
48205;SDS011;33995;48.202;16.260;2023-03-12T16:34:42;5.63;;;5.03;;
48205;SDS011;33995;48.202;16.260;2023-03-12T16:37:11;9.87;;;6.90;;
48205;SDS011;33995;48.202;16.260;2023-03-12T16:39:39;7.20;;;5.83;;
48205;SDS011;33995;48.202;16.260;2023-03-12T16:42:14;9.03;;;6.50;;
48205;SDS011;33995;48.202;16.260;2023-03-12T16:44:43;8.97;;;7.13;;
48205;SDS011;33995;48.202;16.260;2023-03-12T16:47:13;8.53;;;6.60;;
48205;SDS011;33995;48.202;16.260;2023-03-12T16:49:42;7.63;;;6.17;;
48205;SDS011;33995;48.202;16.260;2023-03-12T16:52:17;7.93;;;6.50;;
48205;SDS011;33995;48.202;16.260;2023-03-12T16:54:47;8.47;;;6.70;;
48205;SDS011;33995;48.202;16.260;2023-03-12T16:57:25;7.50;;;6.70;;
48205;SDS011;33995;48.202;16.260;2023-03-12T16:59:58;7.27;;;6.57;;
48205;SDS011;33995;48.202;16.260;2023-03-12T17:02:28;7.50;;;6.43;;
48205;SDS011;33995;48.202;16.260;2023-03-12T17:04:56;7.13;;;5.80;;